createdAt,value
2022-12-25T00:00:50.943Z,4.30
2022-12-25T00:03:57.148Z,4.40
2022-12-25T00:07:00.122Z,4.50
2022-12-25T00:10:02.849Z,5.10
2022-12-25T00:13:07.025Z,4.57
2022-12-25T00:16:13.790Z,3.90
2022-12-25T00:19:20.360Z,4.32
2022-12-25T00:22:23.257Z,4.80
2022-12-25T00:25:26.109Z,4.93
2022-12-25T00:28:29.269Z,4.82
2022-12-25T00:31:32.122Z,5.70
2022-12-25T00:34:35.087Z,4.70
2022-12-25T00:37:37.880Z,5.27
2022-12-25T00:40:44.510Z,4.93
2022-12-25T00:43:50.368Z,5.60
2022-12-25T00:46:53.223Z,4.30
2022-12-25T00:49:56.083Z,5.03
2022-12-25T00:52:58.820Z,4.37
2022-12-25T00:56:04.259Z,5.60
2022-12-25T00:59:06.984Z,5.93
2022-12-25T01:02:24.902Z,5.70
2022-12-25T01:05:28.023Z,6.00
2022-12-25T01:08:33.509Z,6.03
2022-12-25T01:11:36.658Z,5.45
2022-12-25T01:14:42.369Z,5.80
2022-12-25T01:17:45.372Z,5.90
2022-12-25T01:20:54.160Z,5.40
2022-12-25T01:23:57.150Z,5.50
2022-12-25T01:27:06.223Z,5.22
2022-12-25T01:30:09.636Z,5.70
2022-12-25T01:33:12.627Z,5.30
2022-12-25T01:36:26.511Z,5.40
2022-12-25T01:39:32.512Z,5.47
2022-12-25T01:42:36.452Z,5.65
2022-12-25T01:45:45.439Z,5.55
2022-12-25T01:48:48.697Z,5.37
2022-12-25T01:51:56.176Z,5.45
2022-12-25T01:55:04.206Z,5.03
2022-12-25T01:58:07.235Z,5.97
2022-12-25T02:01:10.154Z,5.10
2022-12-25T02:04:18.618Z,5.30
2022-12-25T02:07:24.782Z,5.50
2022-12-25T02:10:27.660Z,5.37
2022-12-25T02:13:30.676Z,5.00
2022-12-25T02:16:57.304Z,5.25
2022-12-25T02:20:23.133Z,5.15
2022-12-25T02:23:42.483Z,4.35
2022-12-25T02:26:56.633Z,5.03
2022-12-25T02:30:09.422Z,5.05
2022-12-25T02:33:38.307Z,4.78
2022-12-25T02:36:54.788Z,4.90
2022-12-25T02:40:16.243Z,6.07
2022-12-25T02:44:06.964Z,5.03
2022-12-25T02:47:29.948Z,5.00
2022-12-25T02:50:51.219Z,5.82
2022-12-25T02:54:14.632Z,5.90
2022-12-25T02:57:41.418Z,5.93
2022-12-25T03:01:06.060Z,5.57
2022-12-25T03:04:31.166Z,6.20
2022-12-25T03:07:37.503Z,6.03
2022-12-25T03:11:05.236Z,6.00
2022-12-25T03:14:28.249Z,6.12
2022-12-25T03:17:32.656Z,5.80
2022-12-25T03:20:56.420Z,6.18
2022-12-25T03:24:21.112Z,6.22
2022-12-25T03:27:24.090Z,6.45
2022-12-25T03:30:56.384Z,6.20
2022-12-25T03:34:34.476Z,5.83
2022-12-25T03:37:45.643Z,6.32
2022-12-25T03:41:18.315Z,5.68
2022-12-25T03:44:55.851Z,4.80
2022-12-25T03:48:13.620Z,5.80
2022-12-25T03:51:38.447Z,5.37
2022-12-25T03:55:00.573Z,5.43
2022-12-25T03:58:24.829Z,6.30
2022-12-25T04:01:46.376Z,5.70
2022-12-25T04:05:11.198Z,5.78
2022-12-25T04:08:35.587Z,5.70
2022-12-25T04:12:02.270Z,5.45
2022-12-25T04:15:27.172Z,5.75
2022-12-25T04:18:48.360Z,5.60
2022-12-25T04:22:09.510Z,6.35
2022-12-25T04:25:30.691Z,5.03
2022-12-25T04:28:52.444Z,5.72
2022-12-25T04:32:13.570Z,5.53
2022-12-25T04:35:42.404Z,5.32
2022-12-25T04:38:47.973Z,6.22
2022-12-25T04:41:51.054Z,6.07
2022-12-25T04:44:53.916Z,6.50
2022-12-25T04:48:00.050Z,5.70
2022-12-25T04:51:16.455Z,6.20
2022-12-25T04:54:22.577Z,5.85
2022-12-25T04:57:28.305Z,5.40
2022-12-25T05:00:34.494Z,7.00
2022-12-25T05:03:37.919Z,11.88
2022-12-25T05:06:40.759Z,7.28
2022-12-25T05:09:43.523Z,8.55
2022-12-25T05:12:46.244Z,7.60
2022-12-25T05:15:49.015Z,6.62
2022-12-25T05:18:52.684Z,5.97
2022-12-25T05:21:57.922Z,6.62
2022-12-25T05:25:00.637Z,6.90
2022-12-25T05:28:03.470Z,6.67
2022-12-25T05:31:06.851Z,7.60
2022-12-25T05:34:09.560Z,6.60
2022-12-25T05:37:12.427Z,9.25
2022-12-25T05:40:15.318Z,9.50
2022-12-25T05:43:19.771Z,8.93
2022-12-25T05:46:23.944Z,7.62
2022-12-25T05:49:26.926Z,8.00
2022-12-25T05:52:33.841Z,7.85
2022-12-25T05:55:38.052Z,7.37
2022-12-25T05:58:41.853Z,7.30
2022-12-25T06:01:44.919Z,7.12
2022-12-25T06:04:47.963Z,6.85
2022-12-25T06:07:50.894Z,7.35
2022-12-25T06:10:53.731Z,8.57
2022-12-25T06:13:56.722Z,8.33
2022-12-25T06:16:59.716Z,8.98
2022-12-25T06:20:02.924Z,8.90
2022-12-25T06:23:05.857Z,9.07
2022-12-25T06:26:11.759Z,8.57
2022-12-25T06:29:14.800Z,7.60
2022-12-25T06:32:18.711Z,7.78
2022-12-25T06:35:24.780Z,8.80
2022-12-25T06:38:30.825Z,8.52
2022-12-25T06:41:33.876Z,8.97
2022-12-25T06:44:36.695Z,8.37
2022-12-25T06:47:39.595Z,8.18
2022-12-25T06:50:45.527Z,8.85
2022-12-25T06:53:49.025Z,9.52
2022-12-25T06:56:51.855Z,8.73
2022-12-25T06:59:55.635Z,8.10
2022-12-25T07:02:59.382Z,9.57
2022-12-25T07:06:02.676Z,8.40
2022-12-25T07:09:05.669Z,8.20
2022-12-25T07:12:19.352Z,9.83
2022-12-25T07:15:22.349Z,9.03
2022-12-25T07:18:26.041Z,8.82
2022-12-25T07:21:28.936Z,9.35
2022-12-25T07:24:31.839Z,9.27
2022-12-25T07:27:34.805Z,9.60
2022-12-25T07:30:38.218Z,13.57
2022-12-25T07:33:41.683Z,9.18
2022-12-25T07:36:44.630Z,10.13
2022-12-25T07:39:47.517Z,12.48
2022-12-25T07:42:50.369Z,11.63
2022-12-25T07:46:00.628Z,25.97
2022-12-25T07:49:03.682Z,21.65
2022-12-25T07:52:06.646Z,29.37
2022-12-25T07:55:10.165Z,24.30
2022-12-25T07:58:15.141Z,18.90
2022-12-25T08:01:27.370Z,16.27
2022-12-25T08:04:30.625Z,16.48
2022-12-25T08:07:33.903Z,15.48
2022-12-25T08:10:37.662Z,11.48
2022-12-25T08:13:43.414Z,10.07
2022-12-25T08:16:47.248Z,9.97
2022-12-25T08:19:50.333Z,12.30
2022-12-25T08:22:53.199Z,12.90
2022-12-25T08:26:04.589Z,12.15
2022-12-25T08:29:08.124Z,10.80
2022-12-25T08:32:11.163Z,13.27
2022-12-25T08:35:14.008Z,12.48
2022-12-25T08:38:16.840Z,13.90
2022-12-25T08:41:19.705Z,13.13
2022-12-25T08:44:22.608Z,12.73
2022-12-25T08:47:25.440Z,10.57
2022-12-25T08:50:28.351Z,11.68
2022-12-25T08:53:31.124Z,11.18
2022-12-25T08:56:34.044Z,12.40
2022-12-25T08:59:36.861Z,12.83
2022-12-25T09:02:40.392Z,10.30
2022-12-25T09:05:43.296Z,9.30
2022-12-25T09:08:49.544Z,6.32
2022-12-25T09:11:52.678Z,7.40
2022-12-25T09:14:55.505Z,8.67
2022-12-25T09:17:58.312Z,8.17
2022-12-25T09:21:05.783Z,8.98
2022-12-25T09:24:08.985Z,10.75
2022-12-25T09:27:11.922Z,12.02
2022-12-25T09:30:14.861Z,13.27
2022-12-25T09:33:18.285Z,11.90
2022-12-25T09:36:23.611Z,10.32
2022-12-25T09:39:26.630Z,10.65
2022-12-25T09:42:37.640Z,10.73
2022-12-25T09:45:40.658Z,10.70
2022-12-25T09:48:48.921Z,7.73
2022-12-25T09:52:00.186Z,7.25
2022-12-25T09:55:19.592Z,6.22
2022-12-25T09:58:25.668Z,6.57
2022-12-25T10:01:41.861Z,6.60
2022-12-25T10:05:09.050Z,6.90
2022-12-25T10:08:35.271Z,6.47
2022-12-25T10:11:40.898Z,6.90
2022-12-25T10:15:08.769Z,5.97
2022-12-25T10:18:37.567Z,6.27
2022-12-25T10:21:41.788Z,7.70
2022-12-25T10:24:49.771Z,4.85
2022-12-25T10:28:05.256Z,5.55
2022-12-25T10:31:23.823Z,3.80
2022-12-25T10:34:29.119Z,4.40
2022-12-25T10:37:32.071Z,3.83
2022-12-25T10:40:52.471Z,2.90
2022-12-25T10:43:57.287Z,2.95
2022-12-25T10:47:06.362Z,3.33
2022-12-25T10:50:19.623Z,3.37
2022-12-25T10:53:25.564Z,3.90
2022-12-25T10:56:28.572Z,3.80
2022-12-25T10:59:36.647Z,3.80
2022-12-25T11:02:41.145Z,4.20
2022-12-25T11:05:50.778Z,4.60
2022-12-25T11:08:56.175Z,4.27
2022-12-25T11:12:05.425Z,4.10
2022-12-25T11:15:34.462Z,3.87
2022-12-25T11:18:52.187Z,11.52
2022-12-25T11:21:57.851Z,12.50
2022-12-25T11:25:13.136Z,4.63
2022-12-25T11:28:16.061Z,3.00
2022-12-25T11:31:21.892Z,3.58
2022-12-25T11:34:24.794Z,4.35
2022-12-25T11:37:44.216Z,3.78
2022-12-25T11:40:53.039Z,3.20
2022-12-25T11:43:59.655Z,3.35
2022-12-25T11:47:13.509Z,4.40
2022-12-25T11:50:44.237Z,19.73
2022-12-25T11:53:56.800Z,6.43
2022-12-25T11:57:01.223Z,7.47
2022-12-25T12:00:09.445Z,6.43
2022-12-25T12:03:28.895Z,4.37
2022-12-25T12:06:45.655Z,4.32
2022-12-25T12:10:06.800Z,3.65
2022-12-25T12:13:38.409Z,4.33
2022-12-25T12:16:41.541Z,4.18
2022-12-25T12:19:44.822Z,3.78
2022-12-25T12:22:51.586Z,3.58
2022-12-25T12:25:54.751Z,3.00
2022-12-25T12:29:03.504Z,3.80
2022-12-25T12:32:15.055Z,3.87
2022-12-25T12:35:21.168Z,4.47
2022-12-25T12:38:24.971Z,4.18
2022-12-25T12:41:43.925Z,4.53
2022-12-25T12:44:46.910Z,4.50
2022-12-25T12:47:59.934Z,4.43
2022-12-25T12:51:40.259Z,4.10
2022-12-25T12:55:13.394Z,4.82
2022-12-25T12:58:35.022Z,4.90
2022-12-25T13:02:32.174Z,4.83
2022-12-25T13:05:42.741Z,4.78
2022-12-25T13:08:56.103Z,4.53
2022-12-25T13:12:09.521Z,3.90
2022-12-25T13:15:18.815Z,4.82
2022-12-25T13:18:24.959Z,4.10
2022-12-25T13:21:37.487Z,4.47
2022-12-25T13:24:55.967Z,4.75
2022-12-25T13:27:59.822Z,4.70
2022-12-25T13:31:18.181Z,5.60
2022-12-25T13:34:39.259Z,6.17
2022-12-25T13:37:43.684Z,5.65
2022-12-25T13:41:12.909Z,5.07
2022-12-25T13:44:27.292Z,3.90
2022-12-25T13:47:37.250Z,4.07
2022-12-25T13:50:48.685Z,3.97
2022-12-25T13:53:51.898Z,4.20
2022-12-25T13:56:58.644Z,7.85
2022-12-25T14:00:02.217Z,8.38
2022-12-25T14:03:08.996Z,6.10
2022-12-25T14:06:25.890Z,7.87
2022-12-25T14:09:28.942Z,6.87
2022-12-25T14:12:32.039Z,6.85
2022-12-25T14:15:36.681Z,8.65
2022-12-25T14:18:51.007Z,8.70
2022-12-25T14:21:58.391Z,8.43
2022-12-25T14:25:01.729Z,8.80
2022-12-25T14:28:09.022Z,10.73
2022-12-25T14:31:12.223Z,9.38
2022-12-25T14:34:23.485Z,8.77
2022-12-25T14:37:31.447Z,7.30
2022-12-25T14:40:36.415Z,7.15
2022-12-25T14:43:40.712Z,7.47
2022-12-25T14:46:48.798Z,7.03
2022-12-25T14:49:54.785Z,7.13
2022-12-25T14:52:59.375Z,8.03
2022-12-25T14:56:05.148Z,7.62
2022-12-25T14:59:17.973Z,8.77
2022-12-25T15:02:20.896Z,8.30
2022-12-25T15:05:35.821Z,9.23
2022-12-25T15:08:38.615Z,8.83
2022-12-25T15:11:41.626Z,9.68
2022-12-25T15:14:46.772Z,10.32
2022-12-25T15:17:50.349Z,10.48
2022-12-25T15:20:53.549Z,10.03
2022-12-25T15:23:58.683Z,10.87
2022-12-25T15:27:01.787Z,12.63
2022-12-25T15:30:13.465Z,12.88
2022-12-25T15:33:17.978Z,14.35
2022-12-25T15:36:21.173Z,20.67
2022-12-25T15:39:24.110Z,13.63
2022-12-25T15:42:27.588Z,19.42
2022-12-25T15:45:31.263Z,22.67
2022-12-25T15:48:34.006Z,29.58
2022-12-25T15:51:36.926Z,24.83
2022-12-25T15:54:39.942Z,31.97
2022-12-25T15:57:44.626Z,34.28
2022-12-25T16:00:47.456Z,23.23
2022-12-25T16:03:50.259Z,26.02
2022-12-25T16:06:53.460Z,36.47
2022-12-25T16:09:56.269Z,39.43
2022-12-25T16:12:59.054Z,38.70
2022-12-25T16:16:03.123Z,45.85
2022-12-25T16:19:06.583Z,38.53
2022-12-25T16:22:21.863Z,32.50
2022-12-25T16:25:25.257Z,40.37
2022-12-25T16:28:28.414Z,23.52
2022-12-25T16:31:31.371Z,14.93
2022-12-25T16:34:34.250Z,12.77
2022-12-25T16:37:37.031Z,8.57
2022-12-25T16:40:40.133Z,8.50
2022-12-25T16:43:43.814Z,8.95
2022-12-25T16:46:47.837Z,11.55
2022-12-25T16:49:50.647Z,14.98
2022-12-25T16:52:53.483Z,15.60
2022-12-25T16:56:08.499Z,12.37
2022-12-25T16:59:22.677Z,10.15
2022-12-25T17:02:25.743Z,7.10
2022-12-25T17:05:33.155Z,8.40
2022-12-25T17:08:37.781Z,9.03
2022-12-25T17:11:40.847Z,6.53
2022-12-25T17:14:43.673Z,5.00
2022-12-25T17:17:46.534Z,4.90
2022-12-25T17:20:50.828Z,4.93
2022-12-25T17:24:01.250Z,4.60
2022-12-25T17:27:08.940Z,4.77
2022-12-25T17:30:12.054Z,4.53
2022-12-25T17:33:14.879Z,4.43
2022-12-25T17:36:19.985Z,5.35
2022-12-25T17:39:23.170Z,7.33
2022-12-25T17:42:26.030Z,14.23
2022-12-25T17:45:28.943Z,19.35
2022-12-25T17:48:31.784Z,12.50
2022-12-25T17:51:34.547Z,11.95
2022-12-25T17:54:40.811Z,12.87
2022-12-25T17:57:44.086Z,14.27
2022-12-25T18:00:47.531Z,10.35
2022-12-25T18:03:52.767Z,9.10
2022-12-25T18:06:58.538Z,8.27
2022-12-25T18:10:03.101Z,11.70
2022-12-25T18:13:11.371Z,13.53
2022-12-25T18:16:14.959Z,15.82
2022-12-25T18:19:18.692Z,18.48
2022-12-25T18:22:22.416Z,16.70
2022-12-25T18:25:25.355Z,16.30
2022-12-25T18:28:28.519Z,12.93
2022-12-25T18:31:33.017Z,14.15
2022-12-25T18:34:35.849Z,14.23
2022-12-25T18:37:40.163Z,15.18
2022-12-25T18:40:44.555Z,14.93
2022-12-25T18:43:54.282Z,16.60
2022-12-25T18:46:58.152Z,14.73
2022-12-25T18:50:04.949Z,12.75
2022-12-25T18:53:08.044Z,13.45
2022-12-25T18:56:14.119Z,11.57
2022-12-25T18:59:18.139Z,9.33
2022-12-25T19:02:21.066Z,10.88
2022-12-25T19:05:24.291Z,10.77
2022-12-25T19:08:27.257Z,9.00
2022-12-25T19:11:30.197Z,9.73
2022-12-25T19:14:48.016Z,8.93
2022-12-25T19:17:51.287Z,8.43
2022-12-25T19:20:54.047Z,6.32
2022-12-25T19:23:56.887Z,5.80
2022-12-25T19:26:59.859Z,5.83
2022-12-25T19:30:02.798Z,4.90
2022-12-25T19:33:08.141Z,4.78
2022-12-25T19:36:16.488Z,4.78
2022-12-25T19:39:20.188Z,5.10
2022-12-25T19:42:23.927Z,5.50
2022-12-25T19:45:26.801Z,6.00
2022-12-25T19:48:31.106Z,6.93
2022-12-25T19:51:37.147Z,7.03
2022-12-25T19:54:40.097Z,8.32
2022-12-25T19:57:43.139Z,8.20
2022-12-25T20:00:46.063Z,8.03
2022-12-25T20:03:49.961Z,7.00
2022-12-25T20:06:52.883Z,6.60
2022-12-25T20:09:55.831Z,6.18
2022-12-25T20:12:58.728Z,5.80
2022-12-25T20:16:02.064Z,6.00
2022-12-25T20:19:06.507Z,6.28
2022-12-25T20:22:09.501Z,5.80
2022-12-25T20:25:14.337Z,6.40
2022-12-25T20:28:17.361Z,6.10
2022-12-25T20:31:27.945Z,5.90
2022-12-25T20:34:30.984Z,5.57
2022-12-25T20:37:34.092Z,5.18
2022-12-25T20:40:53.367Z,5.05
2022-12-25T20:44:02.098Z,4.73
2022-12-25T20:47:05.116Z,4.83
2022-12-25T20:50:08.468Z,4.43
2022-12-25T20:53:11.984Z,4.35
2022-12-25T20:56:17.172Z,5.12
2022-12-25T20:59:20.188Z,4.57
2022-12-25T21:02:34.709Z,4.90
2022-12-25T21:05:50.023Z,5.60
2022-12-25T21:08:53.587Z,4.90
2022-12-25T21:11:56.542Z,4.05
2022-12-25T21:14:59.848Z,4.00
2022-12-25T21:18:04.023Z,3.77
2022-12-25T21:21:07.910Z,3.70
2022-12-25T21:24:11.412Z,4.28
2022-12-25T21:27:14.270Z,3.87
2022-12-25T21:30:17.251Z,4.00
2022-12-25T21:33:38.521Z,3.97
2022-12-25T21:36:41.796Z,4.32
2022-12-25T21:39:44.688Z,4.82
2022-12-25T21:42:47.504Z,4.55
2022-12-25T21:45:50.435Z,4.97
2022-12-25T21:48:53.854Z,4.23
2022-12-25T21:52:11.298Z,4.30
2022-12-25T21:55:14.323Z,4.43
2022-12-25T21:58:17.147Z,5.00
2022-12-25T22:01:20.285Z,4.43
2022-12-25T22:04:24.059Z,5.10
2022-12-25T22:07:26.912Z,5.03
2022-12-25T22:10:31.385Z,5.68
2022-12-25T22:13:52.641Z,4.80
2022-12-25T22:17:14.008Z,4.67
2022-12-25T22:20:31.559Z,5.23
2022-12-25T22:23:34.459Z,5.10
2022-12-25T22:26:37.473Z,6.35
2022-12-25T22:29:40.871Z,6.50
2022-12-25T22:32:44.063Z,6.73
2022-12-25T22:35:46.981Z,6.10
2022-12-25T22:38:49.848Z,5.75
2022-12-25T22:41:59.032Z,6.10
2022-12-25T22:45:03.980Z,6.12
2022-12-25T22:48:06.857Z,5.83
2022-12-25T22:51:09.702Z,5.03
2022-12-25T22:54:19.959Z,5.68
2022-12-25T22:57:23.316Z,6.22
2022-12-25T23:00:26.335Z,5.47
2022-12-25T23:03:29.367Z,5.70
2022-12-25T23:06:32.450Z,5.77
2022-12-25T23:09:35.441Z,6.07
2022-12-25T23:12:56.703Z,6.10
2022-12-25T23:15:59.609Z,5.18
2022-12-25T23:19:20.840Z,5.57
2022-12-25T23:22:42.102Z,7.93
2022-12-25T23:26:03.410Z,6.10
2022-12-25T23:29:25.141Z,7.20
2022-12-25T23:32:28.418Z,6.00
2022-12-25T23:35:31.278Z,6.60
2022-12-25T23:38:35.907Z,5.87
2022-12-25T23:41:46.548Z,6.53
2022-12-25T23:44:55.182Z,6.12
2022-12-25T23:48:00.754Z,6.57
2022-12-25T23:51:08.830Z,6.73
2022-12-25T23:54:14.751Z,7.07
2022-12-25T23:57:20.458Z,6.55
